PWSweather.com
Personal Weather Stations
Station Observations
PWSLORIS
The Farm At Fox Bay, Loris, SC 29569

The Farm At Fox BayLoris, SC 29569

Lat: 34.067097, Lon: -78.86907

Elevation: 108

Station Type: Davis Vantage Pro2 with 24 hr. FARS and solar

http://www.lorisweather.com

Latest ConditionsUpdated 8:30:01 PM EDT Wednesday, Apr 23, 2014
Currently Today's Max Today's Min Today's Average
Temperature 65.3°F18.5°C 79.8°F26.6°C 58.4°F14.7°C 69.4°F20.8°C
Dew Point 49.2°F9.6°C 60.8°F16.0°C 39.5°F4.2°C 52.5°F11.4°C
Winds Calm Calm 9.1 mph NNW14.6 kmh NNW - 3.2 mph 5.1 kmh
Wind Gusts -- 14.0 mph22.5 kmh - -
Humidity 56% 95% 25% 61%
Pressure 29.87 in1011.5 mb 29.87 in1011.5 mb 29.72 in1006.4 mb -
Hour Temp Dew Point Humidity Winds Wind Gusts Pressure Precip Precip Rate Daily Precip Total
08:30 PM 65.3°F18.5°C 49.2°F9.6°C 56% Calm Calm -- 29.87 in1011.5 mb 0.00 in0.0 mm 0.00 in/hr0.0 mm/hr 0.00 in0.0 mm
08:15 PM 68.3°F20.2°C 44.9°F7.2°C 43% Calm Calm -- 29.86 in1011.2 mb 0.00 in0.0 mm 0.00 in/hr0.0 mm/hr 0.00 in0.0 mm
08:00 PM 70.2°F21.2°C 44.1°F6.7°C 39% Calm Calm -- 29.85 in1010.8 mb 0.00 in0.0 mm 0.00 in/hr0.0 mm/hr 0.00 in0.0 mm
07:45 PM 72.0°F22.2°C 45.0°F7.2°C 38% Calm Calm -- 29.85 in1010.8 mb 0.00 in0.0 mm 0.00 in/hr0.0 mm/hr 0.00 in0.0 mm
07:30 PM 73.5°F23.1°C 44.2°F6.8°C 35% 0.5 mph NNE0.8 kmh NNE 2.0 mph3.2 kmh 29.84 in1010.5 mb 0.00 in0.0 mm 0.00 in/hr0.0 mm/hr 0.00 in0.0 mm
07:15 PM 74.7°F23.7°C 41.2°F5.1°C 30% 0.7 mph NE1.1 kmh NE 2.0 mph3.2 kmh 29.83 in1010.2 mb 0.00 in0.0 mm 0.00 in/hr0.0 mm/hr 0.00 in0.0 mm
07:00 PM 76.0°F24.4°C 40.5°F4.7°C 28% 1.0 mph N1.6 kmh N 2.0 mph3.2 kmh 29.83 in1010.2 mb 0.00 in0.0 mm 0.00 in/hr0.0 mm/hr 0.00 in0.0 mm
06:45 PM 77.0°F25.0°C 39.5°F4.2°C 26% 2.5 mph NW4.0 kmh NW 5.0 mph8.0 kmh 29.83 in1010.2 mb 0.00 in0.0 mm 0.00 in/hr0.0 mm/hr 0.00 in0.0 mm
06:30 PM 77.9°F25.5°C 41.2°F5.1°C 27% 3.0 mph NNW4.8 kmh NNW 6.0 mph9.7 kmh 29.82 in1009.8 mb 0.00 in0.0 mm 0.00 in/hr0.0 mm/hr 0.00 in0.0 mm
06:15 PM 78.1°F25.6°C 41.4°F5.2°C 27% 3.3 mph NNW5.3 kmh NNW 6.0 mph9.7 kmh 29.81 in1009.5 mb 0.00 in0.0 mm 0.00 in/hr0.0 mm/hr 0.00 in0.0 mm
06:00 PM 78.4°F25.8°C 41.6°F5.3°C 27% 6.3 mph NW10.1 kmh NW 11.0 mph17.7 kmh 29.81 in1009.5 mb 0.00 in0.0 mm 0.00 in/hr0.0 mm/hr 0.00 in0.0 mm
05:45 PM 78.6°F25.9°C 41.8°F5.4°C 27% 8.5 mph NW13.7 kmh NW 12.0 mph19.3 kmh 29.80 in1009.1 mb 0.00 in0.0 mm 0.00 in/hr0.0 mm/hr 0.00 in0.0 mm
05:30 PM 78.8°F26.0°C 42.9°F6.1°C 28% 6.8 mph NNW10.9 kmh NNW 10.0 mph16.1 kmh 29.80 in1009.1 mb 0.00 in0.0 mm 0.00 in/hr0.0 mm/hr 0.00 in0.0 mm
05:15 PM 79.1°F26.2°C 41.3°F5.2°C 26% 6.1 mph N9.8 kmh N 9.0 mph14.5 kmh 29.80 in1009.1 mb 0.00 in0.0 mm 0.00 in/hr0.0 mm/hr 0.00 in0.0 mm
05:00 PM 79.4°F26.3°C 43.4°F6.3°C 28% 6.3 mph NW10.1 kmh NW 9.0 mph14.5 kmh 29.80 in1009.1 mb 0.00 in0.0 mm 0.00 in/hr0.0 mm/hr 0.00 in0.0 mm
04:45 PM 79.8°F26.6°C 40.8°F4.9°C 25% 6.7 mph NW10.8 kmh NW 9.0 mph14.5 kmh 29.79 in1008.8 mb 0.00 in0.0 mm 0.00 in/hr0.0 mm/hr 0.00 in0.0 mm
04:30 PM 79.6°F26.4°C 42.7°F5.9°C 27% 3.4 mph N5.5 kmh N 6.0 mph9.7 kmh 29.79 in1008.8 mb 0.00 in0.0 mm 0.00 in/hr0.0 mm/hr 0.00 in0.0 mm
04:15 PM 79.6°F26.4°C 41.7°F5.4°C 26% 8.5 mph NW13.7 kmh NW 12.0 mph19.3 kmh 29.80 in1009.1 mb 0.00 in0.0 mm 0.00 in/hr0.0 mm/hr 0.00 in0.0 mm
04:00 PM 78.8°F26.0°C 41.0°F5.0°C 26% 5.6 mph NW9.0 kmh NW 8.0 mph12.9 kmh 29.80 in1009.1 mb 0.00 in0.0 mm 0.00 in/hr0.0 mm/hr 0.00 in0.0 mm
03:45 PM 78.9°F26.1°C 43.9°F6.6°C 29% 8.2 mph NW13.2 kmh NW 13.0 mph20.9 kmh 29.80 in1009.1 mb 0.00 in0.0 mm 0.00 in/hr0.0 mm/hr 0.00 in0.0 mm
03:30 PM 78.7°F25.9°C 44.7°F7.1°C 30% 9.1 mph NW14.6 kmh NW 10.0 mph16.1 kmh 29.80 in1009.1 mb 0.00 in0.0 mm 0.00 in/hr0.0 mm/hr 0.00 in0.0 mm
03:15 PM 78.6°F25.9°C 47.9°F8.8°C 34% 6.9 mph W11.1 kmh W 9.0 mph14.5 kmh 29.81 in1009.5 mb 0.00 in0.0 mm 0.00 in/hr0.0 mm/hr 0.00 in0.0 mm
03:00 PM 78.6°F25.9°C 46.3°F7.9°C 32% 8.6 mph NW13.8 kmh NW 9.0 mph14.5 kmh 29.81 in1009.5 mb 0.00 in0.0 mm 0.00 in/hr0.0 mm/hr 0.00 in0.0 mm
02:45 PM 78.7°F25.9°C 47.2°F8.4°C 33% 7.0 mph NNW11.3 kmh NNW 14.0 mph22.5 kmh 29.82 in1009.8 mb 0.00 in0.0 mm 0.00 in/hr0.0 mm/hr 0.00 in0.0 mm
02:30 PM 78.6°F25.9°C 46.3°F7.9°C 32% 9.1 mph NNW14.6 kmh NNW 9.0 mph14.5 kmh 29.81 in1009.5 mb 0.00 in0.0 mm 0.00 in/hr0.0 mm/hr 0.00 in0.0 mm
02:15 PM 78.3°F25.7°C 47.6°F8.7°C 34% 6.9 mph WNW11.1 kmh WNW 12.0 mph19.3 kmh 29.81 in1009.5 mb 0.00 in0.0 mm 0.00 in/hr0.0 mm/hr 0.00 in0.0 mm
02:00 PM 77.3°F25.2°C 48.3°F9.1°C 36% 8.3 mph NNW13.4 kmh NNW 9.0 mph14.5 kmh 29.82 in1009.8 mb 0.00 in0.0 mm 0.00 in/hr0.0 mm/hr 0.00 in0.0 mm
01:45 PM 76.9°F24.9°C 46.4°F8.0°C 34% 9.1 mph NNW14.6 kmh NNW 13.0 mph20.9 kmh 29.82 in1009.8 mb 0.00 in0.0 mm 0.00 in/hr0.0 mm/hr 0.00 in0.0 mm
01:30 PM 76.7°F24.8°C 48.4°F9.1°C 37% 7.4 mph NNW11.9 kmh NNW 12.0 mph19.3 kmh 29.82 in1009.8 mb 0.00 in0.0 mm 0.00 in/hr0.0 mm/hr 0.00 in0.0 mm
01:15 PM 76.4°F24.7°C 48.2°F9.0°C 37% 7.8 mph NW12.6 kmh NW 11.0 mph17.7 kmh 29.82 in1009.8 mb 0.00 in0.0 mm 0.00 in/hr0.0 mm/hr 0.00 in0.0 mm
01:00 PM 75.5°F24.2°C 47.4°F8.6°C 37% 5.6 mph NW9.0 kmh NW 9.0 mph14.5 kmh 29.82 in1009.8 mb 0.00 in0.0 mm 0.00 in/hr0.0 mm/hr 0.00 in0.0 mm
12:45 PM 75.5°F24.2°C 46.6°F8.1°C 36% 8.8 mph NNW14.2 kmh NNW 10.0 mph16.1 kmh 29.83 in1010.2 mb 0.00 in0.0 mm 0.00 in/hr0.0 mm/hr 0.00 in0.0 mm
12:30 PM 75.3°F24.1°C 50.6°F10.3°C 42% 5.5 mph N8.9 kmh N 10.0 mph16.1 kmh 29.83 in1010.2 mb 0.00 in0.0 mm 0.00 in/hr0.0 mm/hr 0.00 in0.0 mm
12:15 PM 74.1°F23.4°C 50.8°F10.4°C 44% 5.0 mph NW8.0 kmh NW 7.0 mph11.3 kmh 29.83 in1010.2 mb 0.00 in0.0 mm 0.00 in/hr0.0 mm/hr 0.00 in0.0 mm
12:00 PM 73.4°F23.0°C 51.3°F10.7°C 46% 7.5 mph N12.1 kmh N 13.0 mph20.9 kmh 29.84 in1010.5 mb 0.00 in0.0 mm 0.00 in/hr0.0 mm/hr 0.00 in0.0 mm
11:45 AM 73.7°F23.2°C 51.6°F10.9°C 46% 3.9 mph N6.3 kmh N 6.0 mph9.7 kmh 29.84 in1010.5 mb 0.00 in0.0 mm 0.00 in/hr0.0 mm/hr 0.00 in0.0 mm
11:30 AM 73.1°F22.8°C 53.3°F11.8°C 50% 5.0 mph NW8.0 kmh NW 10.0 mph16.1 kmh 29.84 in1010.5 mb 0.00 in0.0 mm 0.00 in/hr0.0 mm/hr 0.00 in0.0 mm
11:15 AM 72.4°F22.4°C 52.2°F11.2°C 49% 5.3 mph N8.5 kmh N 9.0 mph14.5 kmh 29.85 in1010.8 mb 0.00 in0.0 mm 0.00 in/hr0.0 mm/hr 0.00 in0.0 mm
11:00 AM 72.0°F22.2°C 51.8°F11.0°C 49% 4.5 mph NNW7.2 kmh NNW 6.0 mph9.7 kmh 29.85 in1010.8 mb 0.00 in0.0 mm 0.00 in/hr0.0 mm/hr 0.00 in0.0 mm
10:45 AM 71.7°F22.1°C 52.6°F11.4°C 51% 8.3 mph NW13.4 kmh NW 12.0 mph19.3 kmh 29.84 in1010.5 mb 0.00 in0.0 mm 0.00 in/hr0.0 mm/hr 0.00 in0.0 mm
10:30 AM 71.1°F21.7°C 53.1°F11.7°C 53% 8.0 mph W12.9 kmh W 12.0 mph19.3 kmh 29.84 in1010.5 mb 0.00 in0.0 mm 0.00 in/hr0.0 mm/hr 0.00 in0.0 mm
10:15 AM 70.1°F21.2°C 55.6°F13.1°C 60% 4.3 mph NW6.9 kmh NW 5.0 mph8.0 kmh 29.84 in1010.5 mb 0.00 in0.0 mm 0.00 in/hr0.0 mm/hr 0.00 in0.0 mm
10:00 AM 69.3°F20.7°C 57.9°F14.4°C 67% 2.0 mph NE3.2 kmh NE 5.0 mph8.0 kmh 29.84 in1010.5 mb 0.00 in0.0 mm 0.00 in/hr0.0 mm/hr 0.00 in0.0 mm
09:45 AM 68.0°F20.0°C 57.1°F13.9°C 68% 4.9 mph N7.9 kmh N 8.0 mph12.9 kmh 29.83 in1010.2 mb 0.00 in0.0 mm 0.00 in/hr0.0 mm/hr 0.00 in0.0 mm
09:30 AM 67.1°F19.5°C 59.0°F15.0°C 75% 3.1 mph NW5.0 kmh NW 6.0 mph9.7 kmh 29.83 in1010.2 mb 0.00 in0.0 mm 0.00 in/hr0.0 mm/hr 0.00 in0.0 mm
09:15 AM 66.4°F19.1°C 59.0°F15.0°C 77% 3.6 mph NW5.8 kmh NW 7.0 mph11.3 kmh 29.82 in1009.8 mb 0.00 in0.0 mm 0.00 in/hr0.0 mm/hr 0.00 in0.0 mm
09:00 AM 65.5°F18.6°C 59.5°F15.3°C 81% 2.2 mph NW3.5 kmh NW 6.0 mph9.7 kmh 29.81 in1009.5 mb 0.00 in0.0 mm 0.00 in/hr0.0 mm/hr 0.00 in0.0 mm
08:45 AM 64.4°F18.0°C 60.1°F15.6°C 86% 4.3 mph NW6.9 kmh NW 6.0 mph9.7 kmh 29.81 in1009.5 mb 0.00 in0.0 mm 0.00 in/hr0.0 mm/hr 0.00 in0.0 mm
08:30 AM 62.9°F17.2°C 60.8°F16.0°C 93% 1.6 mph NW2.6 kmh NW 4.0 mph6.4 kmh 29.81 in1009.5 mb 0.00 in0.0 mm 0.00 in/hr0.0 mm/hr 0.00 in0.0 mm
08:15 AM 62.0°F16.7°C 60.6°F15.9°C 95% 1.1 mph NW1.8 kmh NW 2.0 mph3.2 kmh 29.80 in1009.1 mb 0.00 in0.0 mm 0.00 in/hr0.0 mm/hr 0.00 in0.0 mm
08:00 AM 61.4°F16.3°C 60.0°F15.6°C 95% 1.0 mph NW1.6 kmh NW 2.0 mph3.2 kmh 29.80 in1009.1 mb 0.00 in0.0 mm 0.00 in/hr0.0 mm/hr 0.00 in0.0 mm
07:45 AM 60.6°F15.9°C 59.1°F15.1°C 95% 0.3 mph NW0.5 kmh NW 1.0 mph1.6 kmh 29.80 in1009.1 mb 0.00 in0.0 mm 0.00 in/hr0.0 mm/hr 0.00 in0.0 mm
07:30 AM 59.7°F15.4°C 58.3°F14.6°C 95% Calm Calm -- 29.79 in1008.8 mb 0.00 in0.0 mm 0.00 in/hr0.0 mm/hr 0.00 in0.0 mm
07:15 AM 58.9°F14.9°C 57.5°F14.2°C 95% 0.5 mph WNW0.8 kmh WNW 1.0 mph1.6 kmh 29.78 in1008.5 mb 0.00 in0.0 mm 0.00 in/hr0.0 mm/hr 0.00 in0.0 mm
07:00 AM 58.4°F14.7°C 56.7°F13.7°C 94% Calm Calm -- 29.77 in1008.1 mb 0.00 in0.0 mm 0.00 in/hr0.0 mm/hr 0.00 in0.0 mm
06:45 AM 58.7°F14.8°C 57.0°F13.9°C 94% Calm Calm -- 29.77 in1008.1 mb 0.00 in0.0 mm 0.00 in/hr0.0 mm/hr 0.00 in0.0 mm
06:30 AM 59.1°F15.1°C 57.4°F14.1°C 94% Calm Calm -- 29.76 in1007.8 mb 0.00 in0.0 mm 0.00 in/hr0.0 mm/hr 0.00 in0.0 mm
06:15 AM 59.5°F15.3°C 57.8°F14.3°C 94% Calm Calm -- 29.75 in1007.5 mb 0.00 in0.0 mm 0.00 in/hr0.0 mm/hr 0.00 in0.0 mm
06:00 AM 59.9°F15.5°C 58.2°F14.6°C 94% Calm Calm -- 29.75 in1007.5 mb 0.00 in0.0 mm 0.00 in/hr0.0 mm/hr 0.00 in0.0 mm
05:45 AM 60.0°F15.6°C 58.3°F14.6°C 94% Calm Calm 1.0 mph1.6 kmh 29.74 in1007.1 mb 0.00 in0.0 mm 0.00 in/hr0.0 mm/hr 0.00 in0.0 mm
05:30 AM 60.2°F15.7°C 58.2°F14.6°C 93% 0.4 mph W0.6 kmh W 3.0 mph4.8 kmh 29.74 in1007.1 mb 0.00 in0.0 mm 0.00 in/hr0.0 mm/hr 0.00 in0.0 mm
05:15 AM 60.3°F15.7°C 58.3°F14.6°C 93% 0.1 mph W0.2 kmh W 2.0 mph3.2 kmh 29.73 in1006.8 mb 0.00 in0.0 mm 0.00 in/hr0.0 mm/hr 0.00 in0.0 mm
05:00 AM 60.4°F15.8°C 58.4°F14.7°C 93% 0.2 mph W0.3 kmh W 4.0 mph6.4 kmh 29.73 in1006.8 mb 0.00 in0.0 mm 0.00 in/hr0.0 mm/hr 0.00 in0.0 mm
04:45 AM 60.7°F15.9°C 58.4°F14.7°C 92% Calm Calm 1.0 mph1.6 kmh 29.72 in1006.4 mb 0.00 in0.0 mm 0.00 in/hr0.0 mm/hr 0.00 in0.0 mm
04:30 AM 61.1°F16.2°C 58.7°F14.8°C 92% Calm Calm -- 29.72 in1006.4 mb 0.00 in0.0 mm 0.00 in/hr0.0 mm/hr 0.00 in0.0 mm
04:15 AM 61.3°F16.3°C 58.6°F14.8°C 91% Calm Calm -- 29.72 in1006.4 mb 0.00 in0.0 mm 0.00 in/hr0.0 mm/hr 0.00 in0.0 mm
04:00 AM 61.6°F16.4°C 58.9°F14.9°C 91% 0.3 mph WNW0.5 kmh WNW -- 29.72 in1006.4 mb 0.00 in0.0 mm 0.00 in/hr0.0 mm/hr 0.00 in0.0 mm
03:45 AM 62.0°F16.7°C 59.3°F15.2°C 91% Calm Calm -- 29.72 in1006.4 mb 0.00 in0.0 mm 0.00 in/hr0.0 mm/hr 0.00 in0.0 mm
03:30 AM 62.2°F16.8°C 59.2°F15.1°C 90% 0.6 mph W1.0 kmh W 3.0 mph4.8 kmh 29.72 in1006.4 mb 0.00 in0.0 mm 0.00 in/hr0.0 mm/hr 0.00 in0.0 mm
03:15 AM 62.6°F17.0°C 59.3°F15.2°C 89% Calm Calm -- 29.72 in1006.4 mb 0.00 in0.0 mm 0.00 in/hr0.0 mm/hr 0.00 in0.0 mm
03:00 AM 62.9°F17.2°C 59.3°F15.2°C 88% 0.9 mph WSW1.4 kmh WSW 3.0 mph4.8 kmh 29.72 in1006.4 mb 0.00 in0.0 mm 0.00 in/hr0.0 mm/hr 0.00 in0.0 mm
02:45 AM 63.3°F17.4°C 59.4°F15.2°C 87% Calm Calm 3.0 mph4.8 kmh 29.72 in1006.4 mb 0.00 in0.0 mm 0.00 in/hr0.0 mm/hr 0.00 in0.0 mm
02:30 AM 63.9°F17.7°C 59.6°F15.3°C 86% Calm Calm -- 29.73 in1006.8 mb 0.00 in0.0 mm 0.00 in/hr0.0 mm/hr 0.00 in0.0 mm
02:15 AM 64.4°F18.0°C 59.8°F15.4°C 85% Calm Calm -- 29.73 in1006.8 mb 0.00 in0.0 mm 0.00 in/hr0.0 mm/hr 0.00 in0.0 mm
02:00 AM 64.9°F18.3°C 59.9°F15.5°C 84% 0.8 mph W1.3 kmh W 4.0 mph6.4 kmh 29.73 in1006.8 mb 0.00 in0.0 mm 0.00 in/hr0.0 mm/hr 0.00 in0.0 mm
01:45 AM 65.2°F18.4°C 59.9°F15.5°C 83% 0.1 mph NW0.2 kmh NW 2.0 mph3.2 kmh 29.74 in1007.1 mb 0.00 in0.0 mm 0.00 in/hr0.0 mm/hr 0.00 in0.0 mm
01:30 AM 65.4°F18.6°C 59.8°F15.4°C 82% 1.2 mph NW1.9 kmh NW 3.0 mph4.8 kmh 29.74 in1007.1 mb 0.00 in0.0 mm 0.00 in/hr0.0 mm/hr 0.00 in0.0 mm
01:15 AM 65.4°F18.6°C 59.8°F15.4°C 82% 0.7 mph NW1.1 kmh NW 3.0 mph4.8 kmh 29.74 in1007.1 mb 0.00 in0.0 mm 0.00 in/hr0.0 mm/hr 0.00 in0.0 mm
01:00 AM 65.4°F18.6°C 59.4°F15.2°C 81% 1.6 mph W2.6 kmh W 4.0 mph6.4 kmh 29.75 in1007.5 mb 0.00 in0.0 mm 0.00 in/hr0.0 mm/hr 0.00 in0.0 mm
12:45 AM 65.9°F18.8°C 59.9°F15.5°C 81% 0.1 mph W0.2 kmh W -- 29.74 in1007.1 mb 0.00 in0.0 mm 0.00 in/hr0.0 mm/hr 0.00 in0.0 mm
12:30 AM 66.4°F19.1°C 60.1°F15.6°C 80% Calm Calm -- 29.75 in1007.5 mb 0.00 in0.0 mm 0.00 in/hr0.0 mm/hr 0.00 in0.0 mm
12:15 AM 66.8°F19.3°C 60.1°F15.6°C 79% Calm Calm -- 29.75 in1007.5 mb 0.00 in0.0 mm 0.00 in/hr0.0 mm/hr 0.00 in0.0 mm
12:00 AM 67.1°F19.5°C 60.0°F15.6°C 78% 1.7 mph WSW2.7 kmh WSW 3.0 mph4.8 kmh 29.75 in1007.5 mb 0.00 in0.0 mm 0.00 in/hr0.0 mm/hr 0.00 in0.0 mm